sensor_id;sensor_type;location;lat;lon;timestamp;P1;durP1;ratioP1;P2;durP2;ratioP2
54745;SDS011;40640;48.130;11.356;2022-08-21T00:03:30;1.30;;;1.20;;
54745;SDS011;40640;48.130;11.356;2022-08-21T00:07:34;1.45;;;0.95;;
54745;SDS011;40640;48.130;11.356;2022-08-21T00:11:37;1.58;;;1.13;;
54745;SDS011;40640;48.130;11.356;2022-08-21T00:15:41;3.83;;;1.58;;
54745;SDS011;40640;48.130;11.356;2022-08-21T00:19:45;1.23;;;1.08;;
54745;SDS011;40640;48.130;11.356;2022-08-21T00:23:49;2.13;;;1.52;;
54745;SDS011;40640;48.130;11.356;2022-08-21T00:27:52;1.10;;;1.10;;
54745;SDS011;40640;48.130;11.356;2022-08-21T00:31:55;1.75;;;1.30;;
54745;SDS011;40640;48.130;11.356;2022-08-21T00:35:58;2.55;;;1.40;;
54745;SDS011;40640;48.130;11.356;2022-08-21T00:40:03;1.20;;;0.95;;
54745;SDS011;40640;48.130;11.356;2022-08-21T00:44:08;1.00;;;0.98;;
54745;SDS011;40640;48.130;11.356;2022-08-21T00:48:14;1.30;;;1.00;;
54745;SDS011;40640;48.130;11.356;2022-08-21T00:52:19;1.65;;;1.35;;
54745;SDS011;40640;48.130;11.356;2022-08-21T00:56:27;1.42;;;1.00;;
54745;SDS011;40640;48.130;11.356;2022-08-21T01:00:33;1.88;;;0.98;;
54745;SDS011;40640;48.130;11.356;2022-08-21T01:04:37;0.80;;;0.80;;
54745;SDS011;40640;48.130;11.356;2022-08-21T01:08:40;1.17;;;1.10;;
54745;SDS011;40640;48.130;11.356;2022-08-21T01:12:48;2.15;;;1.50;;
54745;SDS011;40640;48.130;11.356;2022-08-21T01:16:53;1.40;;;1.02;;
54745;SDS011;40640;48.130;11.356;2022-08-21T01:21:03;2.22;;;0.98;;
54745;SDS011;40640;48.130;11.356;2022-08-21T01:25:09;2.08;;;1.23;;
54745;SDS011;40640;48.130;11.356;2022-08-21T01:29:15;1.88;;;1.35;;
54745;SDS011;40640;48.130;11.356;2022-08-21T01:33:31;0.77;;;0.77;;
54745;SDS011;40640;48.130;11.356;2022-08-21T01:37:35;2.30;;;1.10;;
54745;SDS011;40640;48.130;11.356;2022-08-21T01:41:38;1.67;;;1.13;;
54745;SDS011;40640;48.130;11.356;2022-08-21T01:45:41;1.38;;;1.25;;
54745;SDS011;40640;48.130;11.356;2022-08-21T01:49:44;1.10;;;0.95;;
54745;SDS011;40640;48.130;11.356;2022-08-21T01:53:48;2.13;;;1.20;;
54745;SDS011;40640;48.130;11.356;2022-08-21T01:57:51;1.20;;;1.10;;
54745;SDS011;40640;48.130;11.356;2022-08-21T02:01:54;1.40;;;1.20;;
54745;SDS011;40640;48.130;11.356;2022-08-21T02:05:57;2.20;;;1.40;;
54745;SDS011;40640;48.130;11.356;2022-08-21T02:10:02;1.58;;;0.90;;
54745;SDS011;40640;48.130;11.356;2022-08-21T02:14:07;1.60;;;1.20;;
54745;SDS011;40640;48.130;11.356;2022-08-21T02:18:10;1.60;;;1.13;;
54745;SDS011;40640;48.130;11.356;2022-08-21T02:22:13;1.40;;;1.20;;
54745;SDS011;40640;48.130;11.356;2022-08-21T02:26:17;1.45;;;1.23;;
54745;SDS011;40640;48.130;11.356;2022-08-21T02:30:22;1.30;;;1.20;;
54745;SDS011;40640;48.130;11.356;2022-08-21T02:34:26;1.55;;;1.17;;
54745;SDS011;40640;48.130;11.356;2022-08-21T02:38:30;1.10;;;1.10;;
54745;SDS011;40640;48.130;11.356;2022-08-21T02:42:37;1.55;;;1.13;;
54745;SDS011;40640;48.130;11.356;2022-08-21T02:46:40;1.25;;;1.15;;
54745;SDS011;40640;48.130;11.356;2022-08-21T02:50:43;7.18;;;1.48;;
54745;SDS011;40640;48.130;11.356;2022-08-21T02:54:48;1.98;;;1.70;;
54745;SDS011;40640;48.130;11.356;2022-08-21T02:58:52;1.45;;;1.33;;
54745;SDS011;40640;48.130;11.356;2022-08-21T03:02:55;5.30;;;1.70;;
54745;SDS011;40640;48.130;11.356;2022-08-21T03:06:59;1.48;;;1.38;;
54745;SDS011;40640;48.130;11.356;2022-08-21T03:11:02;1.85;;;1.50;;
54745;SDS011;40640;48.130;11.356;2022-08-21T03:15:11;2.00;;;1.52;;
54745;SDS011;40640;48.130;11.356;2022-08-21T03:19:15;2.88;;;1.67;;
54745;SDS011;40640;48.130;11.356;2022-08-21T03:23:18;1.95;;;1.38;;
54745;SDS011;40640;48.130;11.356;2022-08-21T03:27:21;2.70;;;1.48;;
54745;SDS011;40640;48.130;11.356;2022-08-21T03:31:30;1.70;;;1.42;;
54745;SDS011;40640;48.130;11.356;2022-08-21T03:35:33;1.85;;;1.67;;
54745;SDS011;40640;48.130;11.356;2022-08-21T03:39:36;4.88;;;2.03;;
54745;SDS011;40640;48.130;11.356;2022-08-21T03:43:39;1.60;;;1.45;;
54745;SDS011;40640;48.130;11.356;2022-08-21T03:47:51;1.80;;;1.60;;
54745;SDS011;40640;48.130;11.356;2022-08-21T03:51:56;2.30;;;1.67;;
54745;SDS011;40640;48.130;11.356;2022-08-21T03:56:00;2.10;;;1.83;;
54745;SDS011;40640;48.130;11.356;2022-08-21T04:00:03;1.70;;;1.60;;
54745;SDS011;40640;48.130;11.356;2022-08-21T04:04:10;1.45;;;1.35;;
54745;SDS011;40640;48.130;11.356;2022-08-21T04:08:14;3.97;;;1.83;;
54745;SDS011;40640;48.130;11.356;2022-08-21T04:12:19;2.33;;;1.70;;
54745;SDS011;40640;48.130;11.356;2022-08-21T04:16:23;1.90;;;1.55;;
54745;SDS011;40640;48.130;11.356;2022-08-21T04:20:27;2.50;;;1.83;;
54745;SDS011;40640;48.130;11.356;2022-08-21T04:24:30;5.25;;;1.85;;
54745;SDS011;40640;48.130;11.356;2022-08-21T04:28:34;1.67;;;1.50;;
54745;SDS011;40640;48.130;11.356;2022-08-21T04:32:37;3.42;;;1.90;;
54745;SDS011;40640;48.130;11.356;2022-08-21T04:36:42;2.00;;;1.80;;
54745;SDS011;40640;48.130;11.356;2022-08-21T04:40:44;6.22;;;2.65;;
54745;SDS011;40640;48.130;11.356;2022-08-21T04:44:47;5.97;;;2.33;;
54745;SDS011;40640;48.130;11.356;2022-08-21T04:48:50;4.05;;;2.33;;
54745;SDS011;40640;48.130;11.356;2022-08-21T04:52:54;1.77;;;1.60;;
54745;SDS011;40640;48.130;11.356;2022-08-21T04:56:59;2.70;;;1.98;;
54745;SDS011;40640;48.130;11.356;2022-08-21T05:01:04;2.40;;;1.95;;
54745;SDS011;40640;48.130;11.356;2022-08-21T05:05:10;2.53;;;2.00;;
54745;SDS011;40640;48.130;11.356;2022-08-21T05:09:15;3.13;;;2.50;;
54745;SDS011;40640;48.130;11.356;2022-08-21T05:13:19;3.78;;;2.35;;
54745;SDS011;40640;48.130;11.356;2022-08-21T05:17:23;1.80;;;1.60;;
54745;SDS011;40640;48.130;11.356;2022-08-21T05:21:26;3.58;;;1.48;;
54745;SDS011;40640;48.130;11.356;2022-08-21T05:25:30;3.00;;;1.70;;
54745;SDS011;40640;48.130;11.356;2022-08-21T05:29:35;4.75;;;1.80;;
54745;SDS011;40640;48.130;11.356;2022-08-21T05:33:37;2.63;;;2.10;;
54745;SDS011;40640;48.130;11.356;2022-08-21T05:37:44;3.45;;;2.05;;
54745;SDS011;40640;48.130;11.356;2022-08-21T05:41:48;3.65;;;1.88;;
54745;SDS011;40640;48.130;11.356;2022-08-21T05:45:51;4.25;;;2.00;;
54745;SDS011;40640;48.130;11.356;2022-08-21T05:49:54;1.95;;;1.27;;
54745;SDS011;40640;48.130;11.356;2022-08-21T05:53:56;1.88;;;0.82;;
54745;SDS011;40640;48.130;11.356;2022-08-21T05:58:01;0.75;;;0.63;;
54745;SDS011;40640;48.130;11.356;2022-08-21T06:02:04;0.50;;;0.50;;
54745;SDS011;40640;48.130;11.356;2022-08-21T06:06:08;0.98;;;0.90;;
54745;SDS011;40640;48.130;11.356;2022-08-21T06:10:12;0.82;;;0.60;;
54745;SDS011;40640;48.130;11.356;2022-08-21T06:14:18;2.58;;;1.10;;
54745;SDS011;40640;48.130;11.356;2022-08-21T06:18:21;1.20;;;0.90;;
54745;SDS011;40640;48.130;11.356;2022-08-21T06:22:23;1.30;;;1.00;;
54745;SDS011;40640;48.130;11.356;2022-08-21T06:26:26;4.82;;;0.98;;
54745;SDS011;40640;48.130;11.356;2022-08-21T06:30:32;3.53;;;1.17;;
54745;SDS011;40640;48.130;11.356;2022-08-21T06:34:36;1.05;;;0.80;;
54745;SDS011;40640;48.130;11.356;2022-08-21T06:38:39;2.20;;;1.00;;
54745;SDS011;40640;48.130;11.356;2022-08-21T06:42:51;1.08;;;1.00;;
54745;SDS011;40640;48.130;11.356;2022-08-21T06:46:55;3.08;;;1.27;;
54745;SDS011;40640;48.130;11.356;2022-08-21T06:50:58;0.98;;;0.70;;
54745;SDS011;40640;48.130;11.356;2022-08-21T06:55:01;1.52;;;1.05;;
54745;SDS011;40640;48.130;11.356;2022-08-21T06:59:05;1.73;;;0.93;;
54745;SDS011;40640;48.130;11.356;2022-08-21T07:03:15;5.00;;;1.10;;
54745;SDS011;40640;48.130;11.356;2022-08-21T07:07:19;2.05;;;1.15;;
54745;SDS011;40640;48.130;11.356;2022-08-21T07:11:23;1.58;;;1.20;;
54745;SDS011;40640;48.130;11.356;2022-08-21T07:15:27;2.33;;;1.20;;
54745;SDS011;40640;48.130;11.356;2022-08-21T07:19:32;1.98;;;1.30;;
54745;SDS011;40640;48.130;11.356;2022-08-21T07:23:36;6.90;;;1.45;;
54745;SDS011;40640;48.130;11.356;2022-08-21T07:27:40;4.60;;;1.50;;
54745;SDS011;40640;48.130;11.356;2022-08-21T07:31:43;12.07;;;1.85;;
54745;SDS011;40640;48.130;11.356;2022-08-21T07:35:47;4.22;;;2.33;;
54745;SDS011;40640;48.130;11.356;2022-08-21T07:39:50;3.70;;;1.70;;
54745;SDS011;40640;48.130;11.356;2022-08-21T07:43:53;2.15;;;1.50;;
54745;SDS011;40640;48.130;11.356;2022-08-21T07:47:56;1.90;;;1.48;;
54745;SDS011;40640;48.130;11.356;2022-08-21T07:52:01;2.90;;;1.60;;
54745;SDS011;40640;48.130;11.356;2022-08-21T07:56:04;1.45;;;1.30;;
54745;SDS011;40640;48.130;11.356;2022-08-21T08:00:10;1.48;;;1.35;;
54745;SDS011;40640;48.130;11.356;2022-08-21T08:04:17;0.70;;;0.70;;
54745;SDS011;40640;48.130;11.356;2022-08-21T08:08:28;0.45;;;0.45;;
54745;SDS011;40640;48.130;11.356;2022-08-21T08:12:30;0.60;;;0.60;;
54745;SDS011;40640;48.130;11.356;2022-08-21T08:16:33;0.70;;;0.52;;
54745;SDS011;40640;48.130;11.356;2022-08-21T08:20:36;0.15;;;0.15;;
54745;SDS011;40640;48.130;11.356;2022-08-21T08:24:40;0.10;;;0.10;;
54745;SDS011;40640;48.130;11.356;2022-08-21T08:28:43;0.10;;;0.10;;
54745;SDS011;40640;48.130;11.356;2022-08-21T08:32:47;0.20;;;0.20;;
54745;SDS011;40640;48.130;11.356;2022-08-21T08:36:50;0.30;;;0.30;;
54745;SDS011;40640;48.130;11.356;2022-08-21T08:40:58;0.30;;;0.30;;
54745;SDS011;40640;48.130;11.356;2022-08-21T08:45:05;0.47;;;0.47;;
54745;SDS011;40640;48.130;11.356;2022-08-21T08:49:11;0.70;;;0.70;;
54745;SDS011;40640;48.130;11.356;2022-08-21T08:53:19;0.43;;;0.43;;
54745;SDS011;40640;48.130;11.356;2022-08-21T08:57:27;0.30;;;0.30;;
54745;SDS011;40640;48.130;11.356;2022-08-21T09:01:31;0.10;;;0.10;;
54745;SDS011;40640;48.130;11.356;2022-08-21T09:05:40;0.00;;;0.00;;
54745;SDS011;40640;48.130;11.356;2022-08-21T09:09:51;0.00;;;0.00;;
54745;SDS011;40640;48.130;11.356;2022-08-21T09:14:08;0.00;;;0.00;;
54745;SDS011;40640;48.130;11.356;2022-08-21T09:18:26;0.00;;;0.00;;
54745;SDS011;40640;48.130;11.356;2022-08-21T09:22:39;0.30;;;0.30;;
54745;SDS011;40640;48.130;11.356;2022-08-21T09:26:52;0.75;;;0.45;;
54745;SDS011;40640;48.130;11.356;2022-08-21T09:35:18;0.68;;;0.68;;
54745;SDS011;40640;48.130;11.356;2022-08-21T09:39:25;0.70;;;0.70;;
54745;SDS011;40640;48.130;11.356;2022-08-21T09:43:30;0.75;;;0.70;;
54745;SDS011;40640;48.130;11.356;2022-08-21T09:47:35;1.00;;;0.63;;
54745;SDS011;40640;48.130;11.356;2022-08-21T09:51:39;2.03;;;0.88;;
54745;SDS011;40640;48.130;11.356;2022-08-21T09:55:53;1.33;;;0.70;;
54745;SDS011;40640;48.130;11.356;2022-08-21T10:00:18;1.17;;;0.77;;
54745;SDS011;40640;48.130;11.356;2022-08-21T10:04:29;1.08;;;1.08;;
54745;SDS011;40640;48.130;11.356;2022-08-21T10:08:33;1.83;;;0.98;;
54745;SDS011;40640;48.130;11.356;2022-08-21T10:12:39;1.55;;;1.20;;
54745;SDS011;40640;48.130;11.356;2022-08-21T10:16:51;1.65;;;1.40;;
54745;SDS011;40640;48.130;11.356;2022-08-21T10:21:04;1.75;;;1.25;;
54745;SDS011;40640;48.130;11.356;2022-08-21T10:25:17;5.85;;;0.88;;
54745;SDS011;40640;48.130;11.356;2022-08-21T10:29:29;1.13;;;0.90;;
54745;SDS011;40640;48.130;11.356;2022-08-21T10:37:55;0.63;;;0.60;;
54745;SDS011;40640;48.130;11.356;2022-08-21T10:46:17;0.75;;;0.75;;
54745;SDS011;40640;48.130;11.356;2022-08-21T10:50:30;0.82;;;0.82;;
54745;SDS011;40640;48.130;11.356;2022-08-21T10:54:41;1.20;;;0.85;;
54745;SDS011;40640;48.130;11.356;2022-08-21T10:59:00;0.70;;;0.70;;
54745;SDS011;40640;48.130;11.356;2022-08-21T11:03:08;1.10;;;1.00;;
54745;SDS011;40640;48.130;11.356;2022-08-21T11:07:16;0.80;;;0.80;;
54745;SDS011;40640;48.130;11.356;2022-08-21T11:11:27;0.88;;;0.70;;
54745;SDS011;40640;48.130;11.356;2022-08-21T11:15:37;0.43;;;0.43;;
54745;SDS011;40640;48.130;11.356;2022-08-21T11:19:47;0.20;;;0.13;;
54745;SDS011;40640;48.130;11.356;2022-08-21T11:23:57;0.10;;;0.10;;
54745;SDS011;40640;48.130;11.356;2022-08-21T11:28:08;0.40;;;0.40;;
54745;SDS011;40640;48.130;11.356;2022-08-21T11:32:24;0.90;;;0.90;;
54745;SDS011;40640;48.130;11.356;2022-08-21T11:36:34;1.83;;;1.83;;
54745;SDS011;40640;48.130;11.356;2022-08-21T11:40:54;2.25;;;2.25;;
54745;SDS011;40640;48.130;11.356;2022-08-21T11:45:13;1.40;;;1.40;;
54745;SDS011;40640;48.130;11.356;2022-08-21T11:49:33;0.10;;;0.10;;
54745;SDS011;40640;48.130;11.356;2022-08-21T11:53:46;0.00;;;0.00;;
54745;SDS011;40640;48.130;11.356;2022-08-21T11:57:55;0.00;;;0.00;;
54745;SDS011;40640;48.130;11.356;2022-08-21T12:02:02;0.00;;;0.00;;
54745;SDS011;40640;48.130;11.356;2022-08-21T12:06:13;0.05;;;0.05;;
54745;SDS011;40640;48.130;11.356;2022-08-21T12:10:30;0.13;;;0.13;;
54745;SDS011;40640;48.130;11.356;2022-08-21T12:14:36;1.60;;;0.35;;
54745;SDS011;40640;48.130;11.356;2022-08-21T12:18:42;0.17;;;0.17;;
54745;SDS011;40640;48.130;11.356;2022-08-21T12:22:49;0.00;;;0.00;;
54745;SDS011;40640;48.130;11.356;2022-08-21T12:26:55;0.10;;;0.10;;
54745;SDS011;40640;48.130;11.356;2022-08-21T12:30:59;0.50;;;0.50;;
54745;SDS011;40640;48.130;11.356;2022-08-21T12:35:06;0.80;;;0.80;;
54745;SDS011;40640;48.130;11.356;2022-08-21T12:39:26;1.30;;;1.30;;
54745;SDS011;40640;48.130;11.356;2022-08-21T12:43:33;1.60;;;1.60;;
54745;SDS011;40640;48.130;11.356;2022-08-21T12:47:43;1.10;;;1.10;;
54745;SDS011;40640;48.130;11.356;2022-08-21T12:51:52;1.10;;;1.10;;
54745;SDS011;40640;48.130;11.356;2022-08-21T12:56:01;1.00;;;1.00;;
54745;SDS011;40640;48.130;11.356;2022-08-21T13:00:06;1.00;;;1.00;;
54745;SDS011;40640;48.130;11.356;2022-08-21T13:04:15;0.80;;;0.80;;
54745;SDS011;40640;48.130;11.356;2022-08-21T13:08:22;0.60;;;0.60;;
54745;SDS011;40640;48.130;11.356;2022-08-21T13:12:28;0.40;;;0.40;;
54745;SDS011;40640;48.130;11.356;2022-08-21T13:16:33;0.10;;;0.10;;
54745;SDS011;40640;48.130;11.356;2022-08-21T13:20:37;0.00;;;0.00;;
54745;SDS011;40640;48.130;11.356;2022-08-21T13:24:46;0.00;;;0.00;;
54745;SDS011;40640;48.130;11.356;2022-08-21T13:28:50;0.00;;;0.00;;
54745;SDS011;40640;48.130;11.356;2022-08-21T13:32:55;0.10;;;0.10;;
54745;SDS011;40640;48.130;11.356;2022-08-21T13:37:00;0.10;;;0.10;;
54745;SDS011;40640;48.130;11.356;2022-08-21T13:41:08;0.10;;;0.10;;
54745;SDS011;40640;48.130;11.356;2022-08-21T13:45:21;0.10;;;0.10;;
54745;SDS011;40640;48.130;11.356;2022-08-21T13:49:29;0.20;;;0.20;;
54745;SDS011;40640;48.130;11.356;2022-08-21T13:53:34;0.10;;;0.10;;
54745;SDS011;40640;48.130;11.356;2022-08-21T13:57:39;0.05;;;0.05;;
54745;SDS011;40640;48.130;11.356;2022-08-21T14:01:48;0.10;;;0.10;;
54745;SDS011;40640;48.130;11.356;2022-08-21T14:05:55;0.10;;;0.10;;
54745;SDS011;40640;48.130;11.356;2022-08-21T14:10:01;0.00;;;0.00;;
54745;SDS011;40640;48.130;11.356;2022-08-21T14:14:12;0.00;;;0.00;;
54745;SDS011;40640;48.130;11.356;2022-08-21T14:18:22;0.00;;;0.00;;
54745;SDS011;40640;48.130;11.356;2022-08-21T14:22:30;0.00;;;0.00;;
54745;SDS011;40640;48.130;11.356;2022-08-21T14:26:43;0.00;;;0.00;;
54745;SDS011;40640;48.130;11.356;2022-08-21T14:30:50;0.10;;;0.10;;
54745;SDS011;40640;48.130;11.356;2022-08-21T14:34:54;0.10;;;0.10;;
54745;SDS011;40640;48.130;11.356;2022-08-21T14:38:59;0.70;;;0.20;;
54745;SDS011;40640;48.130;11.356;2022-08-21T14:43:02;0.10;;;0.10;;
54745;SDS011;40640;48.130;11.356;2022-08-21T14:47:07;0.25;;;0.25;;
54745;SDS011;40640;48.130;11.356;2022-08-21T14:51:10;0.22;;;0.10;;
54745;SDS011;40640;48.130;11.356;2022-08-21T14:55:14;0.10;;;0.10;;
54745;SDS011;40640;48.130;11.356;2022-08-21T14:59:17;0.17;;;0.17;;
54745;SDS011;40640;48.130;11.356;2022-08-21T15:03:22;0.20;;;0.20;;
54745;SDS011;40640;48.130;11.356;2022-08-21T15:07:25;0.30;;;0.30;;
54745;SDS011;40640;48.130;11.356;2022-08-21T15:11:28;0.20;;;0.20;;
54745;SDS011;40640;48.130;11.356;2022-08-21T15:15:44;0.22;;;0.22;;
54745;SDS011;40640;48.130;11.356;2022-08-21T15:19:51;0.95;;;0.30;;
54745;SDS011;40640;48.130;11.356;2022-08-21T15:23:53;0.32;;;0.25;;
54745;SDS011;40640;48.130;11.356;2022-08-21T15:27:56;0.75;;;0.40;;
54745;SDS011;40640;48.130;11.356;2022-08-21T15:32:02;0.30;;;0.30;;
54745;SDS011;40640;48.130;11.356;2022-08-21T15:36:18;0.57;;;0.47;;
54745;SDS011;40640;48.130;11.356;2022-08-21T15:40:21;1.00;;;0.60;;
54745;SDS011;40640;48.130;11.356;2022-08-21T15:44:24;0.60;;;0.60;;
54745;SDS011;40640;48.130;11.356;2022-08-21T15:48:29;0.65;;;0.65;;
54745;SDS011;40640;48.130;11.356;2022-08-21T15:52:33;0.63;;;0.60;;
54745;SDS011;40640;48.130;11.356;2022-08-21T15:56:37;0.68;;;0.68;;
54745;SDS011;40640;48.130;11.356;2022-08-21T16:00:42;1.60;;;0.77;;
54745;SDS011;40640;48.130;11.356;2022-08-21T16:04:45;0.80;;;0.73;;
54745;SDS011;40640;48.130;11.356;2022-08-21T16:08:49;0.80;;;0.80;;
54745;SDS011;40640;48.130;11.356;2022-08-21T16:12:54;1.33;;;1.15;;
54745;SDS011;40640;48.130;11.356;2022-08-21T16:17:00;0.80;;;0.80;;
54745;SDS011;40640;48.130;11.356;2022-08-21T16:21:03;0.90;;;0.90;;
54745;SDS011;40640;48.130;11.356;2022-08-21T16:25:07;0.68;;;0.68;;
54745;SDS011;40640;48.130;11.356;2022-08-21T16:29:10;1.45;;;1.08;;
54745;SDS011;40640;48.130;11.356;2022-08-21T16:33:17;0.90;;;0.90;;
54745;SDS011;40640;48.130;11.356;2022-08-21T16:37:23;0.80;;;0.80;;
54745;SDS011;40640;48.130;11.356;2022-08-21T16:41:28;2.13;;;1.10;;
54745;SDS011;40640;48.130;11.356;2022-08-21T16:45:34;1.38;;;1.17;;
54745;SDS011;40640;48.130;11.356;2022-08-21T16:49:37;1.50;;;0.95;;
54745;SDS011;40640;48.130;11.356;2022-08-21T16:53:40;1.63;;;1.27;;
54745;SDS011;40640;48.130;11.356;2022-08-21T16:57:45;1.20;;;1.00;;
54745;SDS011;40640;48.130;11.356;2022-08-21T17:01:47;1.15;;;1.05;;
54745;SDS011;40640;48.130;11.356;2022-08-21T17:05:50;2.42;;;1.35;;
54745;SDS011;40640;48.130;11.356;2022-08-21T17:09:53;3.15;;;1.77;;
54745;SDS011;40640;48.130;11.356;2022-08-21T17:13:59;1.90;;;0.90;;
54745;SDS011;40640;48.130;11.356;2022-08-21T17:18:06;1.95;;;1.45;;
54745;SDS011;40640;48.130;11.356;2022-08-21T17:22:12;2.42;;;1.23;;
54745;SDS011;40640;48.130;11.356;2022-08-21T17:26:15;1.40;;;1.27;;
54745;SDS011;40640;48.130;11.356;2022-08-21T17:30:21;4.72;;;1.48;;
54745;SDS011;40640;48.130;11.356;2022-08-21T17:34:24;3.58;;;1.40;;
54745;SDS011;40640;48.130;11.356;2022-08-21T17:38:32;2.80;;;1.63;;
54745;SDS011;40640;48.130;11.356;2022-08-21T17:42:34;2.72;;;1.50;;
54745;SDS011;40640;48.130;11.356;2022-08-21T17:46:39;2.65;;;1.70;;
54745;SDS011;40640;48.130;11.356;2022-08-21T17:50:43;2.42;;;1.52;;
54745;SDS011;40640;48.130;11.356;2022-08-21T17:54:45;1.88;;;1.52;;
54745;SDS011;40640;48.130;11.356;2022-08-21T17:58:49;2.90;;;1.52;;
54745;SDS011;40640;48.130;11.356;2022-08-21T18:02:58;2.53;;;1.73;;
54745;SDS011;40640;48.130;11.356;2022-08-21T18:07:03;3.20;;;1.38;;
54745;SDS011;40640;48.130;11.356;2022-08-21T18:11:06;3.50;;;2.10;;
54745;SDS011;40640;48.130;11.356;2022-08-21T18:15:15;2.28;;;1.55;;
54745;SDS011;40640;48.130;11.356;2022-08-21T18:19:21;4.70;;;2.67;;
54745;SDS011;40640;48.130;11.356;2022-08-21T18:23:26;3.45;;;2.15;;
54745;SDS011;40640;48.130;11.356;2022-08-21T18:27:44;2.05;;;1.85;;
54745;SDS011;40640;48.130;11.356;2022-08-21T18:31:48;4.72;;;2.38;;
54745;SDS011;40640;48.130;11.356;2022-08-21T18:35:52;2.78;;;2.13;;
54745;SDS011;40640;48.130;11.356;2022-08-21T18:39:58;3.03;;;2.22;;
54745;SDS011;40640;48.130;11.356;2022-08-21T18:44:01;6.47;;;3.10;;
54745;SDS011;40640;48.130;11.356;2022-08-21T18:48:05;5.47;;;3.15;;
54745;SDS011;40640;48.130;11.356;2022-08-21T18:52:10;4.15;;;2.45;;
54745;SDS011;40640;48.130;11.356;2022-08-21T18:56:20;7.47;;;2.50;;
54745;SDS011;40640;48.130;11.356;2022-08-21T19:00:24;3.63;;;2.45;;
54745;SDS011;40640;48.130;11.356;2022-08-21T19:04:30;2.72;;;2.35;;
54745;SDS011;40640;48.130;11.356;2022-08-21T19:08:46;6.53;;;2.85;;
54745;SDS011;40640;48.130;11.356;2022-08-21T19:12:48;8.38;;;3.33;;
54745;SDS011;40640;48.130;11.356;2022-08-21T19:16:52;10.13;;;3.15;;
54745;SDS011;40640;48.130;11.356;2022-08-21T19:20:55;5.47;;;2.63;;
54745;SDS011;40640;48.130;11.356;2022-08-21T19:24:59;5.90;;;2.75;;
54745;SDS011;40640;48.130;11.356;2022-08-21T19:29:04;3.42;;;2.47;;
54745;SDS011;40640;48.130;11.356;2022-08-21T19:33:10;5.45;;;2.78;;
54745;SDS011;40640;48.130;11.356;2022-08-21T19:37:24;5.03;;;2.95;;
54745;SDS011;40640;48.130;11.356;2022-08-21T19:41:32;3.60;;;2.65;;
54745;SDS011;40640;48.130;11.356;2022-08-21T19:45:37;5.22;;;2.88;;
54745;SDS011;40640;48.130;11.356;2022-08-21T19:49:40;4.07;;;2.35;;
54745;SDS011;40640;48.130;11.356;2022-08-21T19:53:46;4.20;;;3.03;;
54745;SDS011;40640;48.130;11.356;2022-08-21T19:57:58;5.18;;;2.85;;
54745;SDS011;40640;48.130;11.356;2022-08-21T20:02:02;6.60;;;2.60;;
54745;SDS011;40640;48.130;11.356;2022-08-21T20:06:06;2.80;;;2.53;;
54745;SDS011;40640;48.130;11.356;2022-08-21T20:10:09;4.38;;;3.10;;
54745;SDS011;40640;48.130;11.356;2022-08-21T20:14:14;6.20;;;3.22;;
54745;SDS011;40640;48.130;11.356;2022-08-21T20:18:20;5.40;;;3.35;;
54745;SDS011;40640;48.130;11.356;2022-08-21T20:22:27;4.43;;;2.97;;
54745;SDS011;40640;48.130;11.356;2022-08-21T20:26:30;5.22;;;3.60;;
54745;SDS011;40640;48.130;11.356;2022-08-21T20:30:34;5.15;;;3.55;;
54745;SDS011;40640;48.130;11.356;2022-08-21T20:34:47;6.43;;;3.03;;
54745;SDS011;40640;48.130;11.356;2022-08-21T20:38:52;5.03;;;3.28;;
54745;SDS011;40640;48.130;11.356;2022-08-21T20:42:55;6.05;;;2.80;;
54745;SDS011;40640;48.130;11.356;2022-08-21T20:47:00;8.98;;;3.80;;
54745;SDS011;40640;48.130;11.356;2022-08-21T20:51:10;6.38;;;3.42;;
54745;SDS011;40640;48.130;11.356;2022-08-21T20:55:15;8.05;;;3.15;;
54745;SDS011;40640;48.130;11.356;2022-08-21T20:59:44;8.98;;;3.67;;
54745;SDS011;40640;48.130;11.356;2022-08-21T21:03:54;8.48;;;3.42;;
54745;SDS011;40640;48.130;11.356;2022-08-21T21:08:04;9.07;;;3.67;;
54745;SDS011;40640;48.130;11.356;2022-08-21T21:12:14;5.80;;;4.07;;
54745;SDS011;40640;48.130;11.356;2022-08-21T21:16:29;4.07;;;3.33;;
54745;SDS011;40640;48.130;11.356;2022-08-21T21:20:40;5.88;;;4.03;;
54745;SDS011;40640;48.130;11.356;2022-08-21T21:33:05;6.85;;;3.38;;
54745;SDS011;40640;48.130;11.356;2022-08-21T21:37:11;5.88;;;3.63;;
54745;SDS011;40640;48.130;11.356;2022-08-21T21:41:27;6.65;;;4.45;;
54745;SDS011;40640;48.130;11.356;2022-08-21T21:45:37;5.47;;;3.28;;
54745;SDS011;40640;48.130;11.356;2022-08-21T21:50:12;8.43;;;4.40;;
54745;SDS011;40640;48.130;11.356;2022-08-21T21:54:29;5.90;;;4.10;;
54745;SDS011;40640;48.130;11.356;2022-08-21T21:59:14;5.90;;;4.05;;
54745;SDS011;40640;48.130;11.356;2022-08-21T22:03:31;5.63;;;3.50;;
54745;SDS011;40640;48.130;11.356;2022-08-21T22:07:41;7.73;;;3.97;;
54745;SDS011;40640;48.130;11.356;2022-08-21T22:11:56;4.75;;;3.75;;
54745;SDS011;40640;48.130;11.356;2022-08-21T22:16:05;3.95;;;3.42;;
54745;SDS011;40640;48.130;11.356;2022-08-21T22:20:10;4.88;;;3.55;;
54745;SDS011;40640;48.130;11.356;2022-08-21T22:24:30;6.80;;;3.70;;
54745;SDS011;40640;48.130;11.356;2022-08-21T22:28:39;6.30;;;3.50;;
54745;SDS011;40640;48.130;11.356;2022-08-21T22:32:45;7.03;;;3.75;;
54745;SDS011;40640;48.130;11.356;2022-08-21T22:36:54;6.65;;;4.05;;
54745;SDS011;40640;48.130;11.356;2022-08-21T22:41:07;6.85;;;3.95;;
54745;SDS011;40640;48.130;11.356;2022-08-21T22:45:17;5.57;;;3.92;;
54745;SDS011;40640;48.130;11.356;2022-08-21T22:49:25;9.80;;;5.25;;
54745;SDS011;40640;48.130;11.356;2022-08-21T22:53:41;8.07;;;4.10;;
54745;SDS011;40640;48.130;11.356;2022-08-21T22:57:59;5.25;;;3.65;;
54745;SDS011;40640;48.130;11.356;2022-08-21T23:02:08;5.05;;;3.78;;
54745;SDS011;40640;48.130;11.356;2022-08-21T23:06:27;5.28;;;3.70;;
54745;SDS011;40640;48.130;11.356;2022-08-21T23:10:39;6.80;;;3.33;;
54745;SDS011;40640;48.130;11.356;2022-08-21T23:14:43;5.85;;;3.88;;
54745;SDS011;40640;48.130;11.356;2022-08-21T23:18:59;4.82;;;4.10;;
54745;SDS011;40640;48.130;11.356;2022-08-21T23:23:12;10.05;;;3.95;;
54745;SDS011;40640;48.130;11.356;2022-08-21T23:27:22;6.13;;;4.85;;
54745;SDS011;40640;48.130;11.356;2022-08-21T23:31:38;5.45;;;3.72;;
54745;SDS011;40640;48.130;11.356;2022-08-21T23:35:50;7.60;;;3.92;;
54745;SDS011;40640;48.130;11.356;2022-08-21T23:40:29;5.97;;;4.32;;
54745;SDS011;40640;48.130;11.356;2022-08-21T23:44:48;8.25;;;4.28;;
54745;SDS011;40640;48.130;11.356;2022-08-21T23:49:01;6.20;;;4.03;;
54745;SDS011;40640;48.130;11.356;2022-08-21T23:53:40;5.97;;;4.40;;
54745;SDS011;40640;48.130;11.356;2022-08-21T23:57:56;5.65;;;3.97;;
